createdAt,value
2023-05-20T00:01:18.933Z,99.90
2023-05-20T00:03:46.603Z,99.90
2023-05-20T00:06:13.594Z,99.90
2023-05-20T00:08:40.568Z,99.90
2023-05-20T00:11:07.726Z,99.90
2023-05-20T00:13:36.196Z,99.90
2023-05-20T00:16:03.112Z,99.90
2023-05-20T00:18:30.051Z,99.90
2023-05-20T00:20:56.957Z,99.90
2023-05-20T00:23:23.810Z,99.90
2023-05-20T00:25:50.924Z,99.90
2023-05-20T00:28:17.761Z,99.90
2023-05-20T00:30:44.667Z,99.90
2023-05-20T00:33:11.586Z,99.90
2023-05-20T00:35:38.447Z,99.90
2023-05-20T00:38:05.843Z,99.90
2023-05-20T00:40:32.677Z,99.90
2023-05-20T00:42:59.508Z,99.90
2023-05-20T00:45:26.497Z,99.90
2023-05-20T00:47:53.521Z,99.90
2023-05-20T00:50:20.889Z,99.90
2023-05-20T00:52:48.365Z,99.90
2023-05-20T00:55:15.230Z,99.90
2023-05-20T00:57:42.100Z,99.90
2023-05-20T01:00:10.871Z,99.90
2023-05-20T01:02:38.293Z,99.90
2023-05-20T01:05:05.666Z,99.90
2023-05-20T01:07:33.018Z,99.90
2023-05-20T01:10:00.657Z,99.90
2023-05-20T01:12:49.476Z,99.90
2023-05-20T01:15:16.816Z,99.90
2023-05-20T01:17:46.822Z,99.90
2023-05-20T01:20:14.852Z,99.90
2023-05-20T01:22:54.509Z,99.90
2023-05-20T01:25:22.156Z,99.90
2023-05-20T01:27:50.265Z,99.90
2023-05-20T01:30:17.596Z,99.90
2023-05-20T01:32:51.819Z,99.90
2023-05-20T01:35:19.098Z,99.90
2023-05-20T01:37:47.415Z,99.90
2023-05-20T01:40:18.484Z,99.90
2023-05-20T01:42:46.573Z,99.90
2023-05-20T01:45:13.470Z,99.90
2023-05-20T01:47:40.891Z,99.90
2023-05-20T01:50:08.303Z,99.90
2023-05-20T01:52:35.244Z,99.90
2023-05-20T01:55:02.107Z,99.90
2023-05-20T01:57:28.970Z,99.90
2023-05-20T01:59:55.763Z,99.90
2023-05-20T02:02:22.695Z,99.90
2023-05-20T02:04:51.439Z,99.90
2023-05-20T02:07:19.129Z,99.90
2023-05-20T02:09:46.704Z,99.90
2023-05-20T02:12:17.058Z,99.90
2023-05-20T02:14:45.908Z,99.90
2023-05-20T02:17:16.259Z,99.90
2023-05-20T02:19:44.081Z,99.90
2023-05-20T02:22:11.176Z,99.90
2023-05-20T02:24:38.003Z,99.90
2023-05-20T02:27:06.385Z,99.90
2023-05-20T02:29:33.347Z,99.90
2023-05-20T02:32:00.216Z,99.90
2023-05-20T02:34:28.150Z,99.90
2023-05-20T02:36:55.086Z,99.90
2023-05-20T02:39:22.033Z,99.90
2023-05-20T02:41:49.224Z,99.90
2023-05-20T02:44:16.932Z,99.90
2023-05-20T02:46:43.946Z,99.90
2023-05-20T02:49:10.882Z,99.90
2023-05-20T02:51:37.746Z,99.90
2023-05-20T02:54:04.711Z,99.90
2023-05-20T02:56:32.615Z,99.90
2023-05-20T02:59:00.225Z,99.90
2023-05-20T03:01:27.164Z,99.90
2023-05-20T03:03:54.628Z,99.90
2023-05-20T03:06:21.634Z,99.90
2023-05-20T03:08:48.498Z,99.90
2023-05-20T03:11:16.114Z,99.90
2023-05-20T03:13:42.918Z,99.90
2023-05-20T03:16:13.234Z,99.90
2023-05-20T03:18:40.810Z,99.90
2023-05-20T03:21:07.645Z,99.90
2023-05-20T03:23:34.818Z,99.90
2023-05-20T03:26:01.846Z,99.90
2023-05-20T03:28:28.743Z,99.90
2023-05-20T03:30:55.829Z,99.90
2023-05-20T03:33:26.172Z,99.90
2023-05-20T03:35:53.745Z,99.90
2023-05-20T03:38:20.670Z,99.90
2023-05-20T03:40:47.430Z,99.90
2023-05-20T03:43:14.879Z,99.90
2023-05-20T03:45:41.869Z,99.90
2023-05-20T03:48:08.776Z,99.90
2023-05-20T03:50:35.969Z,99.90
2023-05-20T03:53:02.990Z,99.90
2023-05-20T03:55:29.896Z,99.90
2023-05-20T03:57:57.035Z,99.90
2023-05-20T04:00:24.153Z,99.90
2023-05-20T04:02:51.071Z,99.90
2023-05-20T04:05:18.051Z,99.90
2023-05-20T04:07:44.910Z,99.90
2023-05-20T04:10:11.976Z,99.90
2023-05-20T04:12:38.850Z,99.90
2023-05-20T04:15:06.809Z,99.90
2023-05-20T04:17:33.980Z,99.90
2023-05-20T04:20:00.846Z,99.90
2023-05-20T04:22:27.888Z,99.90
2023-05-20T04:24:56.557Z,99.90
2023-05-20T04:27:23.794Z,99.90
2023-05-20T04:29:50.714Z,99.90
2023-05-20T04:32:19.282Z,99.90
2023-05-20T04:34:46.762Z,99.90
2023-05-20T04:37:13.936Z,99.90
2023-05-20T04:39:40.830Z,99.90
2023-05-20T04:42:07.698Z,99.90
2023-05-20T04:44:34.628Z,99.90
2023-05-20T04:47:01.621Z,99.90
2023-05-20T04:49:31.257Z,99.90
2023-05-20T04:51:58.641Z,99.90
2023-05-20T04:54:25.609Z,99.90
2023-05-20T04:56:52.507Z,99.90
2023-05-20T04:59:19.388Z,99.90
2023-05-20T05:01:46.294Z,99.90
2023-05-20T05:04:13.184Z,99.90
2023-05-20T05:06:40.135Z,99.90
2023-05-20T05:09:08.016Z,99.90
2023-05-20T05:11:34.933Z,99.90
2023-05-20T05:14:01.862Z,99.90
2023-05-20T05:16:28.719Z,99.90
2023-05-20T05:18:55.607Z,99.90
2023-05-20T05:21:22.526Z,99.90
2023-05-20T05:23:49.323Z,99.90
2023-05-20T05:26:16.362Z,99.90
2023-05-20T05:28:46.162Z,99.90
2023-05-20T05:31:13.092Z,99.90
2023-05-20T05:33:39.894Z,99.90
2023-05-20T05:36:06.940Z,99.90
2023-05-20T05:38:33.813Z,99.90
2023-05-20T05:41:00.816Z,99.90
2023-05-20T05:43:27.675Z,99.90
2023-05-20T05:45:55.077Z,99.90
2023-05-20T05:48:26.594Z,99.90
2023-05-20T05:50:53.856Z,99.90
2023-05-20T05:53:21.381Z,99.90
2023-05-20T05:55:48.206Z,99.90
2023-05-20T05:58:15.212Z,99.90
2023-05-20T06:00:42.119Z,99.90
2023-05-20T06:03:09.017Z,99.90
2023-05-20T06:05:36.307Z,99.90
2023-05-20T06:08:03.617Z,99.90
2023-05-20T06:10:30.564Z,99.90
2023-05-20T06:12:57.366Z,99.90
2023-05-20T06:15:24.269Z,99.90
2023-05-20T06:17:51.359Z,99.90
2023-05-20T06:20:18.277Z,99.90
2023-05-20T06:22:47.783Z,99.90
2023-05-20T06:25:14.879Z,99.90
2023-05-20T06:27:41.763Z,99.90
2023-05-20T06:30:09.205Z,99.90
2023-05-20T06:32:36.032Z,99.90
2023-05-20T06:35:02.889Z,99.90
2023-05-20T06:37:29.710Z,99.90
2023-05-20T06:39:56.623Z,99.90
2023-05-20T06:42:24.021Z,99.90
2023-05-20T06:44:50.850Z,99.90
2023-05-20T06:47:18.305Z,99.90
2023-05-20T06:49:47.572Z,99.90
2023-05-20T06:52:14.694Z,99.90
2023-05-20T06:54:42.188Z,99.90
2023-05-20T06:57:09.768Z,99.90
2023-05-20T06:59:37.511Z,99.90
2023-05-20T07:02:05.708Z,99.90
2023-05-20T07:04:32.646Z,99.90
2023-05-20T07:06:59.462Z,99.90
2023-05-20T07:09:26.365Z,99.90
2023-05-20T07:11:53.236Z,99.90
2023-05-20T07:14:20.116Z,99.90
2023-05-20T07:16:47.033Z,99.90
2023-05-20T07:19:13.962Z,99.90
2023-05-20T07:21:41.359Z,99.90
2023-05-20T07:24:08.201Z,99.90
2023-05-20T07:26:44.000Z,99.90
2023-05-20T07:32:51.517Z,99.90
2023-05-20T07:39:03.529Z,99.90
2023-05-20T07:41:35.277Z,99.90
2023-05-20T07:44:04.497Z,99.90
2023-05-20T07:46:31.718Z,99.90
2023-05-20T07:48:58.622Z,99.90
2023-05-20T07:51:25.473Z,99.90
2023-05-20T07:53:55.431Z,99.90
2023-05-20T07:56:22.406Z,99.90
2023-05-20T07:58:58.440Z,99.90
2023-05-20T08:01:27.229Z,99.90
2023-05-20T08:03:54.291Z,99.90
2023-05-20T08:06:21.673Z,99.90
2023-05-20T08:08:48.488Z,99.90
2023-05-20T08:11:15.527Z,99.90
2023-05-20T08:13:42.414Z,99.90
2023-05-20T08:16:09.327Z,99.90
2023-05-20T08:18:39.601Z,99.90
2023-05-20T08:21:10.098Z,99.90
2023-05-20T08:23:39.655Z,99.90
2023-05-20T08:26:07.765Z,99.90
2023-05-20T08:28:37.176Z,99.90
2023-05-20T08:31:04.142Z,99.90
2023-05-20T08:33:31.038Z,99.90
2023-05-20T08:35:57.900Z,99.90
2023-05-20T08:38:24.758Z,99.90
2023-05-20T08:40:56.675Z,99.90
2023-05-20T08:43:24.426Z,99.90
2023-05-20T08:45:54.999Z,99.90
2023-05-20T08:48:25.841Z,99.90
2023-05-20T08:50:53.711Z,99.90
2023-05-20T08:53:24.056Z,99.90
2023-05-20T08:56:00.772Z,99.90
2023-05-20T08:58:32.894Z,99.90
2023-05-20T09:01:00.209Z,99.90
2023-05-20T09:03:27.603Z,99.90
2023-05-20T09:06:03.249Z,99.90
2023-05-20T09:08:31.285Z,99.90
2023-05-20T09:10:58.148Z,99.90
2023-05-20T09:13:25.180Z,99.90
2023-05-20T09:15:52.407Z,99.90
2023-05-20T09:18:19.584Z,99.90
2023-05-20T09:20:50.850Z,99.90
2023-05-20T09:23:20.325Z,99.90
2023-05-20T09:25:50.383Z,99.90
2023-05-20T09:28:17.901Z,99.90
2023-05-20T09:30:46.164Z,99.90
2023-05-20T09:33:13.997Z,99.90
2023-05-20T09:35:41.676Z,99.90
2023-05-20T09:38:10.586Z,99.90
2023-05-20T09:40:41.199Z,99.90
2023-05-20T09:43:08.862Z,99.90
2023-05-20T09:45:36.380Z,99.90
2023-05-20T09:48:05.803Z,99.90
2023-05-20T09:50:33.157Z,99.90
2023-05-20T09:53:03.543Z,99.90
2023-05-20T09:55:31.873Z,99.90
2023-05-20T09:58:03.386Z,99.90
2023-05-20T10:00:30.818Z,99.90
2023-05-20T10:02:58.519Z,99.90
2023-05-20T10:05:33.434Z,99.90
2023-05-20T10:08:19.231Z,99.70
2023-05-20T10:11:12.675Z,99.60
2023-05-20T10:13:42.882Z,99.50
2023-05-20T10:16:31.528Z,99.60
2023-05-20T10:19:13.669Z,99.20
2023-05-20T10:21:40.736Z,98.90
2023-05-20T10:24:11.258Z,98.90
2023-05-20T10:26:39.813Z,99.10
2023-05-20T10:29:20.120Z,98.90
2023-05-20T10:31:52.240Z,99.00
2023-05-20T10:34:20.742Z,98.20
2023-05-20T10:37:07.956Z,98.70
2023-05-20T10:39:34.785Z,98.10
2023-05-20T10:42:08.469Z,98.10
2023-05-20T10:44:46.668Z,98.10
2023-05-20T10:49:47.634Z,98.00
2023-05-20T10:52:15.768Z,98.10
2023-05-20T10:55:01.566Z,97.80
2023-05-20T10:57:29.685Z,97.20
2023-05-20T10:59:57.199Z,96.80
2023-05-20T11:02:28.728Z,97.40
2023-05-20T11:04:59.682Z,97.60
2023-05-20T11:07:29.271Z,97.40
2023-05-20T11:09:56.961Z,97.40
2023-05-20T11:12:25.878Z,97.10
2023-05-20T11:14:53.581Z,96.70
2023-05-20T11:17:20.798Z,96.30
2023-05-20T11:19:48.516Z,96.60
2023-05-20T11:22:15.676Z,96.50
2023-05-20T11:24:42.536Z,96.50
2023-05-20T11:27:09.733Z,96.50
2023-05-20T11:29:37.039Z,96.60
2023-05-20T11:32:04.180Z,96.60
2023-05-20T11:34:39.367Z,96.90
2023-05-20T11:37:10.297Z,96.80
2023-05-20T11:39:38.121Z,96.40
2023-05-20T11:42:06.213Z,96.10
2023-05-20T11:44:33.333Z,96.00
2023-05-20T11:47:02.352Z,96.40
2023-05-20T11:49:29.429Z,95.90
2023-05-20T11:51:57.670Z,95.70
2023-05-20T11:54:25.114Z,96.10
2023-05-20T11:56:54.339Z,95.20
2023-05-20T11:59:24.454Z,94.70
2023-05-20T12:01:51.534Z,95.10
2023-05-20T12:04:18.888Z,95.00
2023-05-20T12:06:46.931Z,95.20
2023-05-20T12:09:14.449Z,94.90
2023-05-20T12:11:42.110Z,95.00
2023-05-20T12:14:09.532Z,94.70
2023-05-20T12:16:39.345Z,95.00
2023-05-20T12:19:06.393Z,94.70
2023-05-20T12:21:33.332Z,94.50
2023-05-20T12:24:00.267Z,94.60
2023-05-20T12:26:28.692Z,94.50
2023-05-20T12:28:56.174Z,94.40
2023-05-20T12:31:23.492Z,94.60
2023-05-20T12:33:50.755Z,94.50
2023-05-20T12:36:19.778Z,94.50
2023-05-20T12:38:47.036Z,94.60
2023-05-20T12:41:14.071Z,94.80
2023-05-20T12:43:40.963Z,94.80
2023-05-20T12:46:08.169Z,94.70
2023-05-20T12:48:35.054Z,94.10
2023-05-20T12:51:02.017Z,93.90
2023-05-20T12:53:28.828Z,93.80
2023-05-20T12:55:55.889Z,93.90
2023-05-20T12:58:22.825Z,94.00
2023-05-20T13:00:49.935Z,93.90
2023-05-20T13:03:17.069Z,93.80
2023-05-20T13:05:44.151Z,93.60
2023-05-20T13:08:12.744Z,93.60
2023-05-20T13:10:39.541Z,93.20
2023-05-20T13:13:06.387Z,93.30
2023-05-20T13:15:33.714Z,93.70
2023-05-20T13:18:01.619Z,93.90
2023-05-20T13:20:30.087Z,93.90
2023-05-20T13:22:57.161Z,93.80
2023-05-20T13:25:24.002Z,93.80
2023-05-20T13:27:50.992Z,93.40
2023-05-20T13:30:18.050Z,93.40
2023-05-20T13:32:45.077Z,93.20
2023-05-20T13:35:13.187Z,93.30
2023-05-20T13:37:40.183Z,93.40
2023-05-20T13:40:07.666Z,93.40
2023-05-20T13:42:34.557Z,93.50
2023-05-20T13:45:01.435Z,93.30
2023-05-20T13:47:28.366Z,93.00
2023-05-20T13:49:55.258Z,93.00
2023-05-20T13:52:22.116Z,93.00
2023-05-20T13:54:48.969Z,93.10
2023-05-20T13:57:16.244Z,93.10
2023-05-20T13:59:43.913Z,92.80
2023-05-20T14:02:11.322Z,93.30
2023-05-20T14:04:40.393Z,93.30
2023-05-20T14:07:09.586Z,93.20
2023-05-20T14:09:36.880Z,93.20
2023-05-20T14:12:04.312Z,91.90
2023-05-20T14:14:31.117Z,92.00
2023-05-20T14:16:58.314Z,92.10
2023-05-20T14:19:26.326Z,92.60
2023-05-20T14:21:53.220Z,92.20
2023-05-20T14:24:21.374Z,92.30
2023-05-20T14:26:49.794Z,92.30
2023-05-20T14:29:16.669Z,92.30
2023-05-20T14:31:43.617Z,92.50
2023-05-20T14:34:10.776Z,92.70
2023-05-20T14:36:40.110Z,93.00
2023-05-20T14:39:06.929Z,92.80
2023-05-20T14:41:33.735Z,92.60
2023-05-20T14:44:00.672Z,91.60
2023-05-20T14:46:27.644Z,91.60
2023-05-20T14:48:54.514Z,92.20
2023-05-20T14:51:21.358Z,92.40
2023-05-20T14:53:48.202Z,92.60
2023-05-20T14:56:14.996Z,92.90
2023-05-20T14:58:42.058Z,92.40
2023-05-20T15:01:09.290Z,92.40
2023-05-20T15:03:36.227Z,92.40
2023-05-20T15:06:03.187Z,92.50
2023-05-20T15:08:29.972Z,92.60
2023-05-20T15:10:56.989Z,92.60
2023-05-20T15:13:23.811Z,92.60
2023-05-20T15:15:50.615Z,92.50
2023-05-20T15:18:17.432Z,92.40
2023-05-20T15:20:44.570Z,92.20
2023-05-20T15:23:11.740Z,92.30
2023-05-20T15:25:38.514Z,92.70
2023-05-20T15:28:05.482Z,92.70
2023-05-20T15:30:33.223Z,92.50
2023-05-20T15:33:00.377Z,92.60
2023-05-20T15:35:27.265Z,92.90
2023-05-20T15:37:54.608Z,92.60
2023-05-20T15:40:21.857Z,92.80
2023-05-20T15:42:48.638Z,92.70
2023-05-20T15:45:15.473Z,92.80
2023-05-20T15:47:43.337Z,92.30
2023-05-20T15:50:11.396Z,92.10
2023-05-20T15:52:38.741Z,92.30
2023-05-20T15:55:06.524Z,92.40
2023-05-20T15:57:33.298Z,92.00
2023-05-20T16:00:00.257Z,91.90
2023-05-20T16:02:27.436Z,91.90
2023-05-20T16:04:54.397Z,92.20
2023-05-20T16:07:21.342Z,92.40
2023-05-20T16:09:48.160Z,92.60
2023-05-20T16:12:16.884Z,92.30
2023-05-20T16:14:44.797Z,92.30
2023-05-20T16:17:12.431Z,92.80
2023-05-20T16:19:39.395Z,92.50
2023-05-20T16:22:06.408Z,92.40
2023-05-20T16:24:33.229Z,92.40
2023-05-20T16:27:00.141Z,92.50
2023-05-20T16:29:27.240Z,92.50
2023-05-20T16:31:54.235Z,92.50
2023-05-20T16:34:21.212Z,92.60
2023-05-20T16:36:48.053Z,92.60
2023-05-20T16:39:15.572Z,92.60
2023-05-20T16:41:43.144Z,92.20
2023-05-20T16:44:10.421Z,92.20
2023-05-20T16:46:37.289Z,91.90
2023-05-20T16:49:04.226Z,91.80
2023-05-20T16:51:31.444Z,91.80
2023-05-20T16:53:58.224Z,91.90
2023-05-20T16:56:27.592Z,91.90
2023-05-20T16:58:54.453Z,92.00
2023-05-20T17:01:23.194Z,91.80
2023-05-20T17:03:50.247Z,91.90
2023-05-20T17:06:17.661Z,92.20
2023-05-20T17:08:44.448Z,92.20
2023-05-20T17:11:11.292Z,92.30
2023-05-20T17:13:38.465Z,92.20
2023-05-20T17:16:06.163Z,92.20
2023-05-20T17:18:34.059Z,92.30
2023-05-20T17:21:00.894Z,92.20
2023-05-20T17:23:27.779Z,92.40
2023-05-20T17:25:54.956Z,92.40
2023-05-20T17:28:21.738Z,92.40
2023-05-20T17:30:48.541Z,92.30
2023-05-20T17:33:16.114Z,92.30
2023-05-20T17:35:43.028Z,92.40
2023-05-20T17:38:09.884Z,92.00
2023-05-20T17:40:36.942Z,91.90
2023-05-20T17:43:04.092Z,91.70
2023-05-20T17:45:30.905Z,91.90
2023-05-20T17:47:57.944Z,91.70
2023-05-20T17:50:24.972Z,92.10
2023-05-20T17:52:51.812Z,91.80
2023-05-20T17:55:19.150Z,91.70
2023-05-20T17:57:46.120Z,91.80
2023-05-20T18:00:13.334Z,91.80
2023-05-20T18:02:40.226Z,92.00
2023-05-20T18:05:07.720Z,91.80
2023-05-20T18:07:37.695Z,91.90
2023-05-20T18:10:05.089Z,91.90
2023-05-20T18:12:32.005Z,92.20
2023-05-20T18:14:58.906Z,91.90
2023-05-20T18:17:25.871Z,92.00
2023-05-20T18:19:52.825Z,91.90
2023-05-20T18:22:19.869Z,92.00
2023-05-20T18:24:46.652Z,92.10
2023-05-20T18:27:13.643Z,92.10
2023-05-20T18:29:42.987Z,92.20
2023-05-20T18:32:09.972Z,92.30
2023-05-20T18:34:37.316Z,92.20
2023-05-20T18:37:04.329Z,92.10
2023-05-20T18:39:31.353Z,92.10
2023-05-20T18:41:58.208Z,92.20
2023-05-20T18:44:25.022Z,92.30
2023-05-20T18:46:51.852Z,92.40
2023-05-20T18:49:18.707Z,92.30
2023-05-20T18:51:45.554Z,92.00
2023-05-20T18:54:12.328Z,91.90
2023-05-20T18:56:39.153Z,92.20
2023-05-20T18:59:06.082Z,92.30
2023-05-20T19:01:33.916Z,92.30
2023-05-20T19:04:01.138Z,92.50
2023-05-20T19:06:28.041Z,92.60
2023-05-20T19:08:54.831Z,92.50
2023-05-20T19:11:21.998Z,92.10
2023-05-20T19:13:48.853Z,92.20
2023-05-20T19:16:15.706Z,92.30
2023-05-20T19:18:42.707Z,92.60
2023-05-20T19:21:09.621Z,92.70
2023-05-20T19:23:36.536Z,92.60
2023-05-20T19:26:03.416Z,92.20
2023-05-20T19:28:30.264Z,92.50
2023-05-20T19:30:57.206Z,92.60
2023-05-20T19:33:24.209Z,92.70
2023-05-20T19:35:51.342Z,93.10
2023-05-20T19:38:18.455Z,92.90
2023-05-20T19:40:45.619Z,92.90
2023-05-20T19:43:12.722Z,93.20
2023-05-20T19:45:39.741Z,93.30
2023-05-20T19:48:07.090Z,93.50
2023-05-20T19:50:34.266Z,93.50
2023-05-20T19:53:06.116Z,93.60
2023-05-20T19:55:33.931Z,93.60
2023-05-20T19:58:00.852Z,93.80
2023-05-20T20:00:27.707Z,93.60
2023-05-20T20:02:56.108Z,93.60
2023-05-20T20:05:23.947Z,93.70
2023-05-20T20:07:50.847Z,93.50
2023-05-20T20:10:17.782Z,93.70
2023-05-20T20:12:44.682Z,93.80
2023-05-20T20:15:11.865Z,93.40
2023-05-20T20:17:45.915Z,93.70
2023-05-20T20:20:16.903Z,93.90
2023-05-20T20:22:43.965Z,93.60
2023-05-20T20:25:14.097Z,93.10
2023-05-20T20:27:43.957Z,93.20
2023-05-20T20:30:15.025Z,93.70
2023-05-20T20:32:42.564Z,93.30
2023-05-20T20:35:10.055Z,92.80
2023-05-20T20:37:38.388Z,92.80
2023-05-20T20:40:08.118Z,93.20
2023-05-20T20:42:35.008Z,93.20
2023-05-20T20:45:02.481Z,93.00
2023-05-20T20:47:29.638Z,93.10
2023-05-20T20:49:56.881Z,93.20
2023-05-20T20:52:23.791Z,93.30
2023-05-20T20:54:50.742Z,93.40
2023-05-20T20:57:17.649Z,93.50
2023-05-20T20:59:47.903Z,93.30
2023-05-20T21:02:15.149Z,93.40
2023-05-20T21:04:42.816Z,93.90
2023-05-20T21:07:09.772Z,94.10
2023-05-20T21:09:36.733Z,94.10
2023-05-20T21:12:06.678Z,93.80
2023-05-20T21:14:33.864Z,93.70
2023-05-20T21:17:01.115Z,93.80
2023-05-20T21:19:28.607Z,93.80
2023-05-20T21:21:55.586Z,94.00
2023-05-20T21:24:22.521Z,94.20
2023-05-20T21:26:49.533Z,94.20
2023-05-20T21:29:16.382Z,93.90
2023-05-20T21:31:43.184Z,94.10
2023-05-20T21:34:10.002Z,94.30
2023-05-20T21:36:37.139Z,94.10
2023-05-20T21:39:04.116Z,94.10
2023-05-20T21:41:31.060Z,94.30
2023-05-20T21:43:58.024Z,94.20
2023-05-20T21:46:24.937Z,94.20
2023-05-20T21:48:51.813Z,94.10
2023-05-20T21:51:18.611Z,94.20
2023-05-20T21:53:45.906Z,94.30
2023-05-20T21:56:12.901Z,94.30
2023-05-20T21:58:41.718Z,94.30
2023-05-20T22:01:09.967Z,94.40
2023-05-20T22:03:38.256Z,94.30
2023-05-20T22:06:05.948Z,94.40
2023-05-20T22:08:35.923Z,94.50
2023-05-20T22:11:07.425Z,94.60
2023-05-20T22:13:35.761Z,94.60
2023-05-20T22:16:05.205Z,94.60
2023-05-20T22:18:32.288Z,94.70
2023-05-20T22:20:59.424Z,94.80
2023-05-20T22:23:27.276Z,94.80
2023-05-20T22:25:55.097Z,95.20
2023-05-20T22:28:23.843Z,95.00
2023-05-20T22:30:51.542Z,94.80
2023-05-20T22:33:18.669Z,94.80
2023-05-20T22:35:45.480Z,94.90
2023-05-20T22:38:12.509Z,94.80
2023-05-20T22:40:39.447Z,94.70
2023-05-20T22:43:06.361Z,94.80
2023-05-20T22:45:33.572Z,94.70
2023-05-20T22:48:02.092Z,94.60
2023-05-20T22:50:28.995Z,94.80
2023-05-20T22:52:56.001Z,94.70
2023-05-20T22:55:23.952Z,94.80
2023-05-20T22:57:51.066Z,94.80
2023-05-20T23:00:18.525Z,94.80
2023-05-20T23:02:49.742Z,94.70
2023-05-20T23:05:17.387Z,94.80
2023-05-20T23:07:44.902Z,94.60
2023-05-20T23:10:11.948Z,94.70
2023-05-20T23:12:39.937Z,94.60
2023-05-20T23:15:07.567Z,94.60
2023-05-20T23:17:34.406Z,94.40
2023-05-20T23:20:01.328Z,94.40
2023-05-20T23:22:28.149Z,94.40
2023-05-20T23:24:54.987Z,94.30
2023-05-20T23:27:21.871Z,94.20
2023-05-20T23:29:48.724Z,94.10
2023-05-20T23:32:15.804Z,94.00
2023-05-20T23:34:43.649Z,94.10
2023-05-20T23:37:10.487Z,94.30
2023-05-20T23:39:37.462Z,94.10
2023-05-20T23:42:05.213Z,94.10
2023-05-20T23:44:32.058Z,94.00
2023-05-20T23:46:58.880Z,93.90
2023-05-20T23:49:27.236Z,94.00
2023-05-20T23:51:54.203Z,94.10
2023-05-20T23:54:21.235Z,94.20
2023-05-20T23:56:48.125Z,94.10
2023-05-20T23:59:15.360Z,94.20
